createdAt,value
2019-03-19T00:04:29.089Z,4.13
2019-03-19T00:09:34.009Z,4.60
2019-03-19T00:14:39.153Z,4.93
2019-03-19T00:19:45.142Z,5.10
2019-03-19T00:24:49.365Z,4.67
2019-03-19T00:29:54.182Z,3.97
2019-03-19T00:34:59.179Z,4.07
2019-03-19T00:40:04.618Z,4.70
2019-03-19T00:45:10.059Z,4.80
2019-03-19T00:50:15.042Z,5.20
2019-03-19T00:55:19.760Z,4.33
2019-03-19T01:00:24.915Z,4.60
2019-03-19T01:05:29.653Z,3.60
2019-03-19T01:10:34.952Z,3.50
2019-03-19T01:15:39.173Z,3.63
2019-03-19T01:20:42.534Z,3.80
2019-03-19T01:25:55.262Z,3.80
2019-03-19T01:30:52.338Z,3.77
2019-03-19T01:35:55.766Z,3.37
2019-03-19T01:40:59.310Z,3.87
2019-03-19T01:46:04.129Z,3.60
2019-03-19T01:51:09.137Z,3.97
2019-03-19T01:56:13.989Z,3.80
2019-03-19T02:01:18.203Z,3.70
2019-03-19T02:06:22.135Z,3.70
2019-03-19T02:11:26.227Z,3.80
2019-03-19T02:16:30.218Z,3.37
2019-03-19T02:21:34.160Z,3.57
2019-03-19T02:26:38.263Z,4.07
2019-03-19T02:31:42.363Z,3.50
2019-03-19T02:36:46.293Z,4.33
2019-03-19T02:41:50.523Z,4.47
2019-03-19T02:46:55.429Z,4.70
2019-03-19T02:52:00.659Z,4.50
2019-03-19T02:57:05.702Z,4.07
2019-03-19T03:02:10.043Z,4.77
2019-03-19T03:07:15.071Z,4.80
2019-03-19T03:12:19.037Z,4.70
2019-03-19T03:17:24.029Z,4.87
2019-03-19T03:22:28.353Z,5.00
2019-03-19T03:27:32.364Z,4.80
2019-03-19T03:32:37.355Z,5.13
2019-03-19T03:37:42.684Z,5.10
2019-03-19T03:42:47.788Z,5.10
2019-03-19T03:47:52.706Z,5.17
2019-03-19T03:52:58.487Z,5.60
2019-03-19T03:58:03.413Z,5.80
2019-03-19T04:03:08.301Z,5.50
2019-03-19T04:08:13.129Z,5.93
2019-03-19T04:13:18.225Z,5.80
2019-03-19T04:18:23.144Z,5.70
2019-03-19T04:23:28.658Z,6.10
2019-03-19T04:28:33.565Z,6.40
2019-03-19T04:33:38.689Z,7.00
2019-03-19T04:38:43.503Z,7.00
2019-03-19T04:43:48.495Z,7.20
2019-03-19T04:48:53.344Z,7.17
2019-03-19T04:53:58.658Z,7.40
2019-03-19T04:59:03.649Z,8.23
2019-03-19T05:04:08.601Z,7.70
2019-03-19T05:09:25.474Z,8.37
2019-03-19T05:14:30.458Z,7.90
2019-03-19T05:19:35.999Z,8.07
2019-03-19T05:24:42.209Z,8.07
2019-03-19T05:29:47.579Z,8.50
2019-03-19T05:34:52.860Z,8.13
2019-03-19T05:39:58.003Z,7.50
2019-03-19T05:45:04.028Z,7.90
2019-03-19T05:50:09.807Z,7.20
2019-03-19T05:55:14.924Z,7.90
2019-03-19T06:00:21.440Z,7.50
2019-03-19T06:05:26.505Z,7.90
2019-03-19T06:10:31.870Z,8.30
2019-03-19T06:15:37.667Z,8.80
2019-03-19T06:20:42.732Z,7.87
2019-03-19T06:25:48.615Z,9.80
2019-03-19T06:30:53.088Z,9.90
2019-03-19T06:35:57.357Z,11.70
2019-03-19T06:41:01.779Z,11.47
2019-03-19T06:46:06.421Z,11.10
2019-03-19T06:51:10.143Z,10.87
2019-03-19T06:56:14.881Z,10.77
2019-03-19T07:01:18.780Z,9.97
2019-03-19T07:06:24.765Z,11.03
2019-03-19T07:11:27.907Z,10.63
2019-03-19T07:16:32.319Z,11.40
2019-03-19T07:21:36.781Z,12.67
2019-03-19T07:26:40.891Z,13.30
2019-03-19T07:31:46.102Z,13.43
2019-03-19T07:36:50.563Z,15.63
2019-03-19T07:41:55.135Z,14.80
2019-03-19T07:46:59.397Z,14.80
2019-03-19T07:52:03.783Z,15.20
2019-03-19T07:57:08.073Z,14.40
2019-03-19T08:02:13.420Z,14.07
2019-03-19T08:07:18.848Z,16.07
2019-03-19T08:12:23.750Z,14.00
2019-03-19T08:17:28.702Z,14.80
2019-03-19T08:22:33.738Z,13.90
2019-03-19T08:27:39.492Z,14.53
2019-03-19T08:32:45.141Z,13.53
2019-03-19T08:37:51.765Z,13.00
2019-03-19T08:42:58.332Z,12.20
2019-03-19T08:48:04.216Z,12.00
2019-03-19T08:53:09.428Z,11.97
2019-03-19T08:58:14.545Z,11.07
2019-03-19T09:03:19.753Z,11.00
2019-03-19T09:08:25.006Z,11.37
2019-03-19T09:13:30.172Z,11.20
2019-03-19T09:18:35.801Z,10.80
2019-03-19T09:23:41.205Z,9.03
2019-03-19T09:28:47.595Z,6.93
2019-03-19T09:33:52.505Z,6.30
2019-03-19T09:38:57.403Z,4.47
2019-03-19T09:44:02.399Z,4.60
2019-03-19T09:49:07.440Z,3.30
2019-03-19T09:54:12.347Z,3.30
2019-03-19T09:59:26.762Z,2.77
2019-03-19T10:04:25.063Z,2.70
2019-03-19T10:09:30.029Z,1.80
2019-03-19T10:14:37.482Z,3.00
2019-03-19T10:19:42.834Z,2.40
2019-03-19T10:24:48.062Z,3.60
2019-03-19T10:29:53.122Z,3.73
2019-03-19T10:34:57.969Z,3.00
2019-03-19T10:40:03.108Z,2.93
2019-03-19T10:45:09.979Z,2.50
2019-03-19T10:50:17.112Z,3.07
2019-03-19T10:55:22.682Z,2.63
2019-03-19T11:00:29.199Z,2.17
2019-03-19T11:05:33.229Z,2.70
2019-03-19T11:10:37.748Z,2.17
2019-03-19T11:15:41.511Z,2.30
2019-03-19T11:20:46.458Z,2.27
2019-03-19T11:25:54.707Z,2.60
2019-03-19T11:30:57.397Z,2.60
2019-03-19T11:36:02.425Z,3.43
2019-03-19T11:41:07.724Z,2.67
2019-03-19T11:46:12.499Z,2.53
2019-03-19T11:51:17.856Z,2.20
2019-03-19T11:56:22.046Z,2.50
2019-03-19T12:01:26.733Z,2.90
2019-03-19T12:06:31.281Z,2.40
2019-03-19T12:11:36.162Z,1.93
2019-03-19T12:16:40.906Z,2.70
2019-03-19T12:21:45.670Z,3.33
2019-03-19T12:26:50.118Z,2.70
2019-03-19T12:31:54.564Z,2.17
2019-03-19T12:36:59.408Z,2.90
2019-03-19T12:42:04.890Z,2.60
2019-03-19T12:47:10.355Z,2.73
2019-03-19T12:52:15.802Z,2.93
2019-03-19T12:57:21.006Z,2.10
2019-03-19T13:02:26.961Z,3.00
2019-03-19T13:07:32.289Z,3.00
2019-03-19T13:12:37.778Z,2.90
2019-03-19T13:17:43.476Z,2.87
2019-03-19T13:22:48.729Z,2.57
2019-03-19T13:27:54.119Z,2.37
2019-03-19T13:32:59.480Z,3.20
2019-03-19T13:38:04.562Z,2.70
2019-03-19T13:43:09.962Z,2.97
2019-03-19T13:48:14.768Z,2.73
2019-03-19T13:53:19.853Z,3.57
2019-03-19T13:58:27.123Z,2.63
2019-03-19T14:03:32.987Z,3.13
2019-03-19T14:08:38.463Z,2.87
2019-03-19T14:13:43.893Z,3.00
2019-03-19T14:18:48.910Z,2.93
2019-03-19T14:23:53.947Z,3.37
2019-03-19T14:29:00.041Z,3.57
2019-03-19T14:34:05.402Z,3.93
2019-03-19T14:39:10.034Z,3.00
2019-03-19T14:44:15.550Z,4.40
2019-03-19T14:49:20.641Z,3.50
2019-03-19T14:54:26.478Z,3.47
2019-03-19T14:59:32.604Z,3.67
2019-03-19T15:04:38.973Z,3.60
2019-03-19T15:09:43.944Z,3.40
2019-03-19T15:14:49.573Z,3.10
2019-03-19T15:19:55.027Z,3.87
2019-03-19T15:25:00.366Z,3.93
2019-03-19T15:30:07.071Z,3.87
2019-03-19T15:35:12.620Z,3.27
2019-03-19T15:40:18.051Z,3.70
2019-03-19T15:45:24.427Z,3.90
2019-03-19T15:50:31.236Z,3.70
2019-03-19T15:55:53.987Z,3.60
2019-03-19T16:00:59.058Z,4.60
2019-03-19T16:06:04.011Z,3.77
2019-03-19T16:11:08.890Z,3.50
2019-03-19T16:16:13.745Z,2.97
2019-03-19T16:21:19.078Z,3.17
2019-03-19T16:26:25.259Z,2.47
2019-03-19T16:31:30.415Z,2.70
2019-03-19T16:36:35.023Z,2.83
2019-03-19T16:41:39.770Z,2.43
2019-03-19T16:46:45.005Z,2.90
2019-03-19T16:51:50.543Z,3.03
2019-03-19T16:56:55.730Z,3.17
2019-03-19T17:02:01.637Z,2.90
2019-03-19T17:07:05.440Z,3.40
2019-03-19T17:12:09.739Z,3.20
2019-03-19T17:17:14.077Z,3.43
2019-03-19T17:22:18.209Z,3.37
2019-03-19T17:27:22.831Z,3.67
2019-03-19T17:32:27.115Z,3.70
2019-03-19T17:37:32.247Z,3.70
2019-03-19T17:42:38.194Z,3.63
2019-03-19T17:47:44.164Z,3.20
2019-03-19T17:52:50.393Z,3.47
2019-03-19T17:57:55.749Z,3.73
2019-03-19T18:03:00.643Z,3.70
2019-03-19T18:08:05.767Z,6.33
2019-03-19T18:13:10.987Z,17.10
2019-03-19T18:18:16.237Z,9.30
2019-03-19T18:23:21.842Z,6.20
2019-03-19T18:28:27.685Z,4.00
2019-03-19T18:33:32.734Z,2.93
2019-03-19T18:38:37.461Z,3.30
2019-03-19T18:43:42.652Z,2.60
2019-03-19T18:48:48.530Z,3.47
2019-03-19T18:53:55.065Z,4.80
2019-03-19T18:59:00.560Z,5.30
2019-03-19T19:04:05.644Z,4.87
2019-03-19T19:09:10.787Z,3.87
2019-03-19T19:14:15.812Z,5.30
2019-03-19T19:19:21.356Z,6.70
2019-03-19T19:24:26.548Z,5.50
2019-03-19T19:29:32.159Z,5.20
2019-03-19T19:34:37.444Z,4.93
2019-03-19T19:39:42.728Z,4.57
2019-03-19T19:44:47.818Z,4.87
2019-03-19T19:49:53.406Z,4.93
2019-03-19T19:54:58.907Z,5.43
2019-03-19T20:00:05.063Z,5.00
2019-03-19T20:05:10.241Z,4.63
2019-03-19T20:10:16.678Z,9.87
2019-03-19T20:15:22.330Z,7.20
2019-03-19T20:20:28.042Z,9.80
2019-03-19T20:25:34.015Z,13.77
2019-03-19T20:30:39.391Z,14.07
2019-03-19T20:35:44.155Z,5.03
2019-03-19T20:40:49.049Z,4.63
2019-03-19T20:45:54.285Z,3.93
2019-03-19T20:51:00.600Z,4.07
2019-03-19T20:56:05.175Z,4.53
2019-03-19T21:01:09.776Z,4.23
2019-03-19T21:06:14.269Z,3.47
2019-03-19T21:11:19.038Z,4.13
2019-03-19T21:16:23.547Z,4.30
2019-03-19T21:21:27.944Z,3.90
2019-03-19T21:26:31.878Z,3.83
2019-03-19T21:31:36.107Z,3.60
2019-03-19T21:36:40.357Z,3.80
2019-03-19T21:41:45.815Z,3.90
2019-03-19T21:46:51.025Z,4.07
2019-03-19T21:51:57.650Z,3.80
2019-03-19T21:57:03.018Z,3.90
2019-03-19T22:02:07.452Z,3.40
2019-03-19T22:07:12.014Z,3.97
2019-03-19T22:12:16.527Z,4.10
2019-03-19T22:17:20.946Z,3.90
2019-03-19T22:22:25.359Z,5.10
2019-03-19T22:27:29.900Z,6.63
2019-03-19T22:32:35.070Z,6.80
2019-03-19T22:37:41.379Z,7.00
2019-03-19T22:42:46.913Z,7.17
2019-03-19T22:47:51.849Z,5.90
2019-03-19T22:52:57.517Z,4.93
2019-03-19T22:58:02.532Z,4.17
2019-03-19T23:03:08.087Z,4.77
2019-03-19T23:08:13.263Z,3.70
2019-03-19T23:13:18.531Z,4.40
2019-03-19T23:18:23.277Z,3.60
2019-03-19T23:23:28.437Z,3.73
2019-03-19T23:28:33.615Z,3.70
2019-03-19T23:33:38.903Z,3.30
2019-03-19T23:38:44.292Z,3.67
2019-03-19T23:43:49.937Z,3.73
2019-03-19T23:48:54.967Z,3.50
2019-03-19T23:54:01.073Z,3.53
2019-03-19T23:59:06.411Z,3.80
